Time;durP1;ratioP1;P1;durP2;ratioP2;P2;SDS_P1;SDS_P2;PMS_P1;PMS_P2;Temp;Humidity;BMP_temperature;BMP_pressure;BME280_temperature;BME280_humidity;BME280_pressure;Samples;Min_cycle;Max_cycle;Signal;HPM_P1;HPM_P2
2023/03/24 00:03:00;;;;;;;19.10;9.00;;;;;;;12.97;64.47;98016.63;434385;1254;107539;-42
2023/03/24 00:13:08;;;;;;;18.90;11.20;;;;;;;12.97;64.50;98013.66;434450;1257;98841;-41
2023/03/24 00:33:22;;;;;;;26.40;14.20;;;;;;;12.98;64.65;98009.32;434343;1252;108679;-41
2023/03/24 00:43:30;;;;;;;17.80;10.50;;;;;;;12.75;64.76;97998.23;434422;1257;99229;-41
2023/03/24 00:53:42;;;;;;;14.30;8.30;;;;;;;12.56;64.93;97983.13;434306;1257;108236;-41
2023/03/24 01:03:50;;;;;;;16.00;8.80;;;;;;;12.36;65.12;97972.80;434404;1253;98814;-41
2023/03/24 01:13:57;;;;;;;18.00;10.00;;;;;;;12.15;65.36;97970.13;434508;1255;111639;-41
2023/03/24 01:24:06;;;;;;;17.50;9.40;;;;;;;11.99;65.41;97952.69;434302;1257;106819;-41
2023/03/24 01:34:13;;;;;;;17.50;8.30;;;;;;;11.90;65.69;97939.08;434404;1253;99409;-41
2023/03/24 01:44:26;;;;;;;15.10;9.00;;;;;;;11.78;65.97;97928.73;434411;1257;108352;-41
2023/03/24 01:54:37;;;;;;;13.50;7.70;;;;;;;11.62;66.34;97915.80;434426;1256;98373;-41
2023/03/24 02:04:47;;;;;;;12.20;7.00;;;;;;;11.55;66.63;97901.96;434461;1257;111188;-41
2023/03/24 02:14:55;;;;;;;15.50;8.00;;;;;;;11.47;66.84;97900.74;434343;1253;107183;-40
2023/03/24 02:35:49;;;;;;;14.80;9.10;;;;;;;11.65;67.29;97893.42;434463;1257;107019;-42
2023/03/24 02:45:58;;;;;;;15.50;9.80;;;;;;;11.58;67.62;97902.09;435753;1251;98089;-41
2023/03/24 02:56:10;;;;;;;17.00;9.00;;;;;;;11.58;67.68;97897.23;435252;1250;111895;-41
2023/03/24 03:06:23;;;;;;;12.30;6.80;;;;;;;11.57;67.84;97895.62;435440;1250;107079;-42
2023/03/24 03:16:33;;;;;;;11.40;8.00;;;;;;;11.62;67.93;97897.16;435304;1254;99215;-42
2023/03/24 03:26:42;;;;;;;14.00;7.60;;;;;;;11.66;68.05;97893.54;435347;1251;108263;-41
2023/03/24 03:47:03;;;;;;;17.40;8.40;;;;;;;11.59;68.36;97896.16;435323;1254;111135;-41
2023/03/24 03:57:11;;;;;;;14.20;7.60;;;;;;;11.59;68.42;97900.58;435442;1254;107692;-41
2023/03/24 04:17:26;;;;;;;;;;;;;;;11.72;68.85;97891.60;435298;1254;107278;-40
2023/03/24 04:37:45;;;;;;;10.80;8.10;;;;;;;11.53;69.37;97893.42;435472;1254;112087;-42
2023/03/24 04:47:49;;;;;;;9.80;6.70;;;;;;;11.50;69.89;97886.20;435403;1254;107357;-41
2023/03/24 04:57:56;;;;;;;8.70;5.90;;;;;;;11.61;70.27;97871.20;435481;1254;98909;-41
2023/03/24 05:08:03;;;;;;;7.60;5.40;;;;;;;11.71;70.56;97861.09;435202;1253;107690;-41
2023/03/24 05:18:10;;;;;;;8.50;5.60;;;;;;;11.72;70.74;97850.19;435137;1250;97922;-42
2023/03/24 05:28:18;;;;;;;9.90;6.30;;;;;;;11.73;71.12;97846.90;434897;1250;111992;-39
2023/03/24 05:38:25;;;;;;;13.00;6.90;;;;;;;11.86;71.21;97847.59;434643;1256;107854;-40
2023/03/24 05:48:32;;;;;;;17.30;8.60;;;;;;;12.07;71.26;97843.52;435232;1251;99241;-41
2023/03/24 05:58:39;;;;;;;17.90;9.10;;;;;;;12.25;71.33;97828.48;435358;1256;108091;-41
2023/03/24 06:08:46;;;;;;;19.40;10.90;;;;;;;12.36;71.36;97816.86;435335;1254;98053;-41
2023/03/24 06:18:54;;;;;;;14.90;10.60;;;;;;;12.43;71.48;97816.67;435411;1251;111601;-41
2023/03/24 06:29:01;;;;;;;22.00;12.30;;;;;;;12.56;71.52;97806.69;435303;1254;108162;-41
2023/03/24 06:39:08;;;;;;;19.90;11.70;;;;;;;12.79;71.64;97811.39;435365;1254;99336;-40
2023/03/24 06:49:15;;;;;;;16.40;9.90;;;;;;;13.04;71.75;97810.14;435430;1254;107863;-42
2023/03/24 07:09:30;;;;;;;15.30;9.60;;;;;;;13.62;71.46;97802.02;435296;1256;111582;-41
2023/03/24 07:19:37;;;;;;;13.10;9.60;;;;;;;14.13;71.31;97796.02;435184;1256;108251;-40
2023/03/24 07:29:44;;;;;;;14.50;9.70;;;;;;;14.34;70.94;97799.39;435325;1250;97925;-41
2023/03/24 07:39:51;;;;;;;13.00;8.80;;;;;;;14.53;70.79;97789.02;435240;1256;107175;-42
2023/03/24 07:49:58;;;;;;;12.20;7.30;;;;;;;15.24;70.63;97783.19;435209;1254;98844;-40
2023/03/24 08:10:13;;;;;;;11.10;7.70;;;;;;;15.84;68.83;97775.63;435303;1250;106952;-40
2023/03/24 08:40:35;;;;;;;11.40;6.20;;;;;;;15.77;68.61;97764.94;435396;1251;98804;-40
2023/03/24 08:50:43;;;;;;;19.80;7.00;;;;;;;15.96;67.87;97752.79;435341;1254;110083;-41
2023/03/24 09:00:51;;;;;;;11.40;7.10;;;;;;;15.93;67.58;97751.16;435411;1250;108259;-41
2023/03/24 09:10:59;;;;;;;8.90;6.40;;;;;;;16.26;67.33;97737.89;435388;1250;98651;-40
2023/03/24 09:21:04;;;;;;;13.90;6.30;;;;;;;16.68;66.24;97727.95;435440;1257;108282;-42
2023/03/24 09:31:12;;;;;;;8.00;5.80;;;;;;;17.34;65.89;97724.80;435209;1256;101660;-41
2023/03/24 09:41:19;;;;;;;8.60;4.00;;;;;;;17.93;64.98;97713.52;435261;1256;110823;-42
2023/03/24 09:51:28;;;;;;;7.60;4.90;;;;;;;18.44;63.97;97709.66;435258;1256;109326;-41
2023/03/24 10:01:35;;;;;;;9.20;4.70;;;;;;;18.65;62.64;97703.66;435304;1250;99262;-41
2023/03/24 10:21:52;;;;;;;5.60;4.00;;;;;;;17.94;61.93;97686.88;435412;1256;98012;-42
2023/03/24 10:31:57;;;;;;;10.60;4.80;;;;;;;18.02;61.79;97673.30;435412;1256;112325;-41
2023/03/24 10:42:04;;;;;;;5.70;4.60;;;;;;;17.91;61.63;97668.02;435383;1251;108446;-41
2023/03/24 10:52:14;;;;;;;4.90;3.50;;;;;;;17.57;61.13;97661.14;435444;1251;99228;-41
2023/03/24 11:02:22;;;;;;;10.60;4.00;;;;;;;17.68;61.29;97657.14;435427;1255;107649;-41
2023/03/24 11:12:31;;;;;;;8.50;3.80;;;;;;;18.03;61.12;97643.40;435410;1251;98050;-41
2023/03/24 11:22:40;;;;;;;5.90;3.60;;;;;;;18.21;60.84;97636.52;435358;1254;111584;-42
2023/03/24 11:32:48;;;;;;;4.90;3.10;;;;;;;18.48;60.07;97625.73;435294;1250;107820;-40
2023/03/24 11:42:53;;;;;;;;;;;;;;;18.86;59.13;97610.38;435446;1256;99225;-41
2023/03/24 11:53:01;;;;;;;8.80;5.30;;;;;;;19.12;56.01;97587.77;435391;1254;107066;-41
2023/03/24 12:03:26;;;;;;;10.30;4.50;;;;;;;19.07;55.24;97579.81;435344;1264;98011;-41
2023/03/24 12:13:33;;;;;;;6.50;4.30;;;;;;;19.22;55.51;97559.77;436473;1254;110484;-42
2023/03/24 12:23:44;;;;;;;10.90;5.50;;;;;;;19.52;55.32;97550.98;435406;1252;108761;-41
2023/03/24 12:33:51;;;;;;;16.20;6.60;;;;;;;19.72;54.78;97542.69;435385;1257;99209;-41
2023/03/24 12:44:18;;;;;;;8.20;5.20;;;;;;;19.93;53.74;97533.67;435486;1255;108890;-41
2023/03/24 12:54:26;;;;;;;9.60;5.90;;;;;;;19.97;52.42;97530.41;435336;1264;99100;-42
2023/03/24 13:04:33;;;;;;;13.50;6.80;;;;;;;19.69;51.87;97524.10;435323;1257;110638;-42
2023/03/24 13:14:39;;;;;;;10.10;6.80;;;;;;;19.39;51.48;97515.91;435382;1252;107584;-41
2023/03/24 13:24:44;;;;;;;16.10;7.30;;;;;;;19.36;52.82;97509.15;435477;1257;97976;-41
2023/03/24 13:34:58;;;;;;;13.50;8.70;;;;;;;19.08;52.50;97504.16;435325;1255;107793;-41
2023/03/24 13:45:07;;;;;;;13.00;9.90;;;;;;;18.69;52.68;97494.92;435517;1256;99852;-41
2023/03/24 13:55:15;;;;;;;16.30;9.60;;;;;;;18.48;52.86;97497.78;435380;1256;110365;-41
2023/03/24 14:16:20;;;;;;;23.20;12.80;;;;;;;18.29;54.24;97490.02;435368;1254;98804;-40
2023/03/24 14:26:34;;;;;;;14.70;11.70;;;;;;;18.00;54.83;97478.23;435396;1255;107568;-41
2023/03/24 14:36:43;;;;;;;15.60;11.40;;;;;;;17.61;55.83;97471.02;435410;1251;99243;-41
2023/03/24 14:46:50;;;;;;;13.60;11.60;;;;;;;17.36;56.59;97452.14;435370;1256;112092;-41
2023/03/24 14:57:00;;;;;;;19.40;13.20;;;;;;;17.15;57.68;97434.48;435252;1258;108238;-40
2023/03/24 15:07:13;;;;;;;13.80;11.20;;;;;;;16.93;58.15;97421.50;435498;1254;99237;-41
2023/03/24 15:17:22;;;;;;;17.40;12.70;;;;;;;16.68;58.64;97411.08;435384;1264;107417;-42
2023/03/24 15:27:32;;;;;;;15.80;12.60;;;;;;;16.50;59.00;97415.14;435308;1255;97982;-42
2023/03/24 15:37:46;;;;;;;18.70;12.20;;;;;;;16.30;59.67;97416.70;434976;1254;518137;-40
2023/03/24 15:47:55;;;;;;;21.70;13.00;;;;;;;16.09;60.12;97404.14;435330;1254;107373;-40
2023/03/24 16:08:26;;;;;;;29.10;19.60;;;;;;;15.72;61.21;97419.02;435224;1251;107802;-41
2023/03/24 16:18:36;;;;;;;28.50;18.50;;;;;;;15.58;61.90;97431.81;435313;1254;99855;-42
2023/03/24 16:28:43;;;;;;;19.70;15.40;;;;;;;15.37;62.48;97437.33;435414;1255;111291;-42
2023/03/24 16:38:51;;;;;;;20.40;15.30;;;;;;;15.09;63.21;97416.87;435357;1251;108076;-42
2023/03/24 16:48:58;;;;;;;19.40;15.10;;;;;;;14.90;63.83;97412.61;435415;1251;99231;-40
2023/03/24 16:59:05;;;;;;;21.00;15.00;;;;;;;14.71;64.21;97415.26;435234;1254;106752;-40
2023/03/24 17:09:13;;;;;;;18.30;13.00;;;;;;;14.58;64.61;97416.58;435383;1254;99215;-41
2023/03/24 17:19:22;;;;;;;19.90;13.20;;;;;;;14.51;65.01;97428.90;435386;1254;111474;-41
2023/03/24 17:29:30;;;;;;;22.50;13.80;;;;;;;14.41;65.15;97429.64;435492;1255;106756;-41
2023/03/24 17:49:44;;;;;;;21.90;13.90;;;;;;;14.22;65.64;97444.45;435259;1250;107849;-44
2023/03/24 17:59:51;;;;;;;20.20;13.60;;;;;;;14.23;65.73;97439.18;435267;1251;99109;-41
2023/03/24 18:10:00;;;;;;;18.10;12.90;;;;;;;14.19;66.31;97440.96;435271;1254;112092;-42
2023/03/24 18:30:15;;;;;;;20.40;12.90;;;;;;;13.99;66.99;97453.30;435404;1254;98354;-42
2023/03/24 18:40:23;;;;;;;18.80;12.30;;;;;;;13.95;67.23;97460.92;435419;1254;108413;-41
2023/03/24 18:50:29;;;;;;;23.80;13.70;;;;;;;13.90;67.72;97468.77;435240;1254;99313;-42
2023/03/24 19:00:36;;;;;;;21.80;14.40;;;;;;;13.80;67.84;97475.08;435382;1250;111382;-41
2023/03/24 19:10:44;;;;;;;23.20;15.60;;;;;;;13.65;68.24;97485.54;435165;1254;109438;-41
2023/03/24 19:20:54;;;;;;;24.50;13.90;;;;;;;13.60;68.36;97484.38;435415;1254;99308;-41
2023/03/24 19:31:07;;;;;;;21.50;15.80;;;;;;;13.57;68.62;97475.84;435279;1250;108243;-42
2023/03/24 19:41:15;;;;;;;26.60;15.40;;;;;;;13.54;68.81;97481.39;435284;1254;98062;-44
2023/03/24 20:01:33;;;;;;;19.90;12.70;;;;;;;13.34;69.17;97472.55;435158;1254;108609;-42
2023/03/24 20:11:40;;;;;;;19.40;12.10;;;;;;;13.29;69.46;97469.35;435225;1250;99209;-42
2023/03/24 20:21:46;;;;;;;15.40;10.60;;;;;;;13.22;69.70;97470.21;435314;1264;108178;-40
2023/03/24 20:31:54;;;;;;;21.60;12.60;;;;;;;13.06;70.07;97477.77;435229;1254;98050;-41
2023/03/24 20:42:02;;;;;;;16.80;11.20;;;;;;;12.93;70.28;97488.70;435253;1254;112255;-42
2023/03/24 20:52:09;;;;;;;15.50;9.20;;;;;;;12.84;70.45;97502.91;435247;1250;109454;-50
2023/03/24 21:02:15;;;;;;;11.20;6.50;;;;;;;12.76;70.60;97519.07;435329;1260;99290;-42
2023/03/24 21:12:21;;;;;;;12.40;7.10;;;;;;;12.73;71.17;97525.91;435268;1250;107304;-42
2023/03/24 21:32:36;;;;;;;23.70;13.30;;;;;;;12.75;71.72;97544.25;435401;1251;112304;-40
2023/03/24 21:42:45;;;;;;;19.60;12.80;;;;;;;12.75;72.03;97531.68;435305;1254;106919;-42
2023/03/24 21:52:54;;;;;;;15.10;9.80;;;;;;;12.74;72.05;97531.42;435353;1254;99241;-40
2023/03/24 22:13:06;;;;;;;19.90;9.80;;;;;;;12.80;72.49;97536.36;435269;1255;99250;-41
2023/03/24 22:23:13;;;;;;;17.30;10.60;;;;;;;12.62;72.59;97522.03;435309;1254;111087;-41
2023/03/24 22:33:21;;;;;;;19.40;13.10;;;;;;;12.40;72.92;97512.80;435264;1254;108032;-41
2023/03/24 22:43:29;;;;;;;23.60;14.30;;;;;;;12.36;73.46;97521.19;435326;1254;98069;-40
2023/03/24 22:53:36;;;;;;;22.20;14.00;;;;;;;12.37;73.79;97522.52;435351;1250;108077;-40
2023/03/24 23:03:44;;;;;;;26.70;14.70;;;;;;;12.41;73.99;97528.23;435289;1254;99230;-41
2023/03/24 23:13:51;;;;;;;23.10;13.90;;;;;;;12.32;74.11;97531.95;435304;1254;114130;-44
2023/03/24 23:23:58;;;;;;;19.50;12.20;;;;;;;12.20;74.67;97536.36;435329;1254;108087;-41
2023/03/24 23:34:06;;;;;;;18.20;11.60;;;;;;;12.08;74.95;97537.33;435483;1254;99231;-40
2023/03/24 23:54:20;;;;;;;16.30;11.90;;;;;;;11.75;74.99;97536.13;435451;1254;98871;-40
